Time;durP1;ratioP1;P1;durP2;ratioP2;P2;SDS_P1;SDS_P2;PMS_P1;PMS_P2;Temp;Humidity;BMP_temperature;BMP_pressure;BME280_temperature;BME280_humidity;BME280_pressure;Samples;Min_cycle;Max_cycle;Signal;HPM_P1;HPM_P2
2022/07/26 00:00:53;;;;;;;6.05;1.02;;;;;;;15.78;57.41;100985.41;5012550;28;20445;-68
2022/07/26 00:03:30;;;;;;;8.73;1.20;;;;;;;15.74;57.37;100973.34;5003044;28;20140;-68
2022/07/26 00:05:56;;;;;;;9.60;1.63;;;;;;;15.78;57.15;100986.25;5008956;28;20089;-68
2022/07/26 00:08:21;;;;;;;7.53;1.30;;;;;;;15.51;57.69;100978.22;5015498;28;20084;-67
2022/07/26 00:10:48;;;;;;;7.00;0.85;;;;;;;15.79;57.35;100976.53;5016082;28;20051;-68
2022/07/26 00:13:16;;;;;;;8.73;1.80;;;;;;;15.13;58.93;100967.25;4998100;28;20540;-69
2022/07/26 00:15:46;;;;;;;7.32;1.15;;;;;;;15.51;57.91;100972.94;5014242;28;20029;-68
2022/07/26 00:18:13;;;;;;;12.98;1.90;;;;;;;15.43;58.35;100974.31;5012483;28;20391;-67
2022/07/26 00:20:40;;;;;;;11.68;1.52;;;;;;;15.51;57.85;100972.09;5012833;28;20033;-68
2022/07/26 00:23:05;;;;;;;12.75;1.27;;;;;;;15.17;58.71;100969.63;5001422;28;20086;-67
2022/07/26 00:25:31;;;;;;;10.07;1.38;;;;;;;15.52;58.26;100976.41;5000048;28;20029;-68
2022/07/26 00:27:56;;;;;;;9.65;1.30;;;;;;;15.51;58.22;100983.47;5010993;28;20089;-69
2022/07/26 00:30:22;;;;;;;10.43;1.55;;;;;;;15.44;58.06;100976.88;5016312;28;20038;-68
2022/07/26 00:32:48;;;;;;;7.60;1.35;;;;;;;15.57;57.91;100977.84;5011732;28;20049;-72
2022/07/26 00:35:14;;;;;;;7.95;0.98;;;;;;;15.37;58.28;100981.66;5014279;28;20037;-72
2022/07/26 00:37:39;;;;;;;14.15;2.05;;;;;;;15.30;58.64;100979.47;4988318;28;20045;-72
2022/07/26 00:40:06;;;;;;;5.60;1.45;;;;;;;15.37;58.43;100979.03;5018067;28;20029;-66
2022/07/26 00:42:32;;;;;;;13.02;1.83;;;;;;;15.28;58.73;100986.59;5020821;28;20152;-74
2022/07/26 00:44:58;;;;;;;8.98;1.08;;;;;;;15.26;58.96;100977.94;5016180;28;20136;-66
2022/07/26 00:47:23;;;;;;;7.45;1.60;;;;;;;;;;5000307;28;20583;-66
2022/07/26 00:49:49;;;;;;;10.65;1.30;;;;;;;14.80;60.10;100981.41;4997492;28;20049;-69
2022/07/26 00:52:14;;;;;;;3.33;1.45;;;;;;;14.74;60.46;100993.09;5014832;28;20048;-71
2022/07/26 00:54:42;;;;;;;6.53;1.60;;;;;;;15.28;58.97;100997.13;5017074;28;20036;-71
2022/07/26 00:57:08;;;;;;;14.88;2.83;;;;;;;15.25;58.86;100992.06;5016694;28;20041;-71
2022/07/26 00:59:34;;;;;;;9.13;1.67;;;;;;;15.41;58.72;100992.00;4994164;28;20134;-71
2022/07/26 01:02:02;;;;;;;10.77;2.47;;;;;;;15.65;57.89;100984.44;5015718;28;20081;-72
2022/07/26 01:04:28;;;;;;;9.50;1.60;;;;;;;15.68;57.59;100985.09;5019251;28;20038;-74
2022/07/26 01:06:54;;;;;;;7.47;2.28;;;;;;;15.22;59.42;100987.81;5017707;28;20835;-73
2022/07/26 01:09:19;;;;;;;5.63;1.63;;;;;;;15.35;58.69;100980.06;5022109;28;20047;-73
2022/07/26 01:11:45;;;;;;;6.82;1.35;;;;;;;15.54;58.38;100993.81;5016468;28;20037;-70
2022/07/26 01:14:10;;;;;;;7.72;1.30;;;;;;;15.49;58.48;100990.63;4998891;28;20489;-66
2022/07/26 01:16:36;;;;;;;10.85;2.08;;;;;;;15.47;58.41;100987.22;5018159;28;20121;-69
2022/07/26 01:19:02;;;;;;;10.10;1.80;;;;;;;15.66;58.05;100983.50;5019679;28;20029;-75
2022/07/26 01:21:32;;;;;;;7.97;1.55;;;;;;;15.59;58.34;100978.59;5018405;28;20130;-74
2022/07/26 01:23:58;;;;;;;11.05;1.52;;;;;;;15.55;58.71;100978.84;5015474;28;20056;-67
2022/07/26 01:26:24;;;;;;;7.68;1.50;;;;;;;15.62;58.48;100984.59;5015633;28;20056;-67
2022/07/26 01:28:52;;;;;;;6.90;1.60;;;;;;;15.38;59.18;100983.34;4988604;28;20140;-67
2022/07/26 01:31:17;;;;;;;7.75;2.15;;;;;;;15.53;58.60;100992.13;5005031;28;20054;-67
2022/07/26 01:33:44;;;;;;;5.88;1.40;;;;;;;15.08;59.94;100977.19;5013635;28;20103;-67
2022/07/26 01:36:11;;;;;;;11.98;1.63;;;;;;;15.38;59.47;100982.50;5013731;28;20038;-67
2022/07/26 01:38:37;;;;;;;8.52;1.52;;;;;;;15.66;58.71;100983.50;5017741;28;20137;-67
2022/07/26 01:41:02;;;;;;;8.05;1.88;;;;;;;15.48;59.11;100988.06;5018451;28;20048;-67
2022/07/26 01:43:28;;;;;;;6.43;1.50;;;;;;;15.55;58.86;100984.13;5014030;28;20048;-68
2022/07/26 01:45:53;;;;;;;10.45;1.77;;;;;;;15.54;58.99;100982.44;5016470;28;20099;-66
2022/07/26 01:48:18;;;;;;;12.38;1.92;;;;;;;15.56;58.84;100989.31;5016321;28;20072;-66
2022/07/26 01:50:44;;;;;;;9.20;2.53;;;;;;;15.72;58.20;100985.75;5015968;28;20040;-67
2022/07/26 01:53:09;;;;;;;6.85;1.63;;;;;;;15.66;58.64;100986.13;5012469;28;20041;-70
2022/07/26 01:55:35;;;;;;;13.80;4.57;;;;;;;15.87;57.87;100984.84;5004069;28;20032;-67
2022/07/26 01:58:02;;;;;;;9.57;2.15;;;;;;;15.80;57.95;100994.06;5012989;28;20473;-67
2022/07/26 02:00:28;;;;;;;10.80;1.42;;;;;;;15.61;58.67;100988.19;5016304;28;20033;-68
2022/07/26 02:02:53;;;;;;;11.88;1.77;;;;;;;15.48;59.10;100990.69;4998232;28;20045;-67
2022/07/26 02:05:19;;;;;;;10.23;1.60;;;;;;;15.49;59.05;100990.63;4999197;28;20513;-68
2022/07/26 02:07:44;;;;;;;12.55;2.13;;;;;;;15.45;59.08;100989.09;4995339;28;20045;-69
2022/07/26 02:10:11;;;;;;;8.57;1.73;;;;;;;15.34;59.31;100991.50;4997779;28;20299;-67
2022/07/26 02:12:36;;;;;;;4.10;1.55;;;;;;;15.30;59.45;100990.84;5014507;28;20209;-67
2022/07/26 02:15:04;;;;;;;5.45;1.75;;;;;;;15.25;59.41;100992.91;4985945;28;20577;-67
2022/07/26 02:17:30;;;;;;;16.92;2.03;;;;;;;15.01;60.33;100994.28;4997484;28;20041;-67
2022/07/26 02:19:55;;;;;;;13.57;2.08;;;;;;;15.15;59.99;100989.91;5014692;28;20103;-67
2022/07/26 02:22:23;;;;;;;5.60;1.65;;;;;;;15.20;59.35;100994.06;5015496;28;20049;-66
2022/07/26 02:24:49;;;;;;;9.73;2.47;;;;;;;15.35;59.16;100995.88;5015722;28;20480;-68
2022/07/26 02:27:15;;;;;;;9.13;1.65;;;;;;;15.35;59.00;100993.22;4996689;28;22967;-67
2022/07/26 02:29:40;;;;;;;15.50;2.80;;;;;;;15.05;60.15;101001.91;5014695;28;20456;-68
2022/07/26 02:32:06;;;;;;;6.20;2.38;;;;;;;15.16;59.56;100993.41;4997444;28;20147;-68
2022/07/26 02:34:32;;;;;;;15.15;2.55;;;;;;;15.16;59.55;101007.41;5013698;28;20025;-67
2022/07/26 02:36:58;;;;;;;13.38;2.40;;;;;;;14.87;60.56;100998.53;5010965;28;20053;-71
2022/07/26 02:39:26;;;;;;;11.20;2.55;;;;;;;14.97;59.90;100998.88;5013073;28;20071;-64
2022/07/26 02:41:56;;;;;;;11.15;3.13;;;;;;;14.92;60.13;101001.75;5012827;28;20045;-64
2022/07/26 02:44:24;;;;;;;5.25;2.88;;;;;;;14.87;60.65;101008.22;4990004;28;20029;-65
2022/07/26 02:46:49;;;;;;;12.00;1.63;;;;;;;15.15;59.89;101013.63;5014769;28;20045;-64
2022/07/26 02:49:15;;;;;;;10.90;2.75;;;;;;;15.30;59.58;101011.06;5014579;28;20114;-76
2022/07/26 02:51:40;;;;;;;17.08;2.72;;;;;;;15.36;59.18;101031.78;5005193;28;20580;-75
2022/07/26 02:54:06;;;;;;;8.13;2.00;;;;;;;14.60;60.58;101040.38;5017426;28;20339;-76
2022/07/26 02:56:31;;;;;;;8.63;1.75;;;;;;;14.47;60.48;101042.81;5019866;28;20953;-75
2022/07/26 02:58:57;;;;;;;6.10;1.40;;;;;;;14.72;59.66;101039.72;5013892;28;20538;-74
2022/07/26 03:01:22;;;;;;;11.32;1.63;;;;;;;14.93;58.73;101040.28;5003108;28;20025;-75
2022/07/26 03:03:48;;;;;;;6.60;1.63;;;;;;;15.08;58.07;101032.47;5011459;28;20473;-74
2022/07/26 03:06:13;;;;;;;6.90;0.63;;;;;;;15.04;57.79;101036.22;4987786;28;20140;-67
2022/07/26 03:08:39;;;;;;;5.50;0.60;;;;;;;14.87;57.85;101050.31;5013981;28;20057;-68
2022/07/26 03:11:05;;;;;;;9.10;1.10;;;;;;;15.00;57.48;101046.06;5012017;28;20037;-65
2022/07/26 03:13:31;;;;;;;8.10;1.40;;;;;;;15.04;57.73;101052.03;4997068;28;20045;-66
2022/07/26 03:15:56;;;;;;;6.90;1.48;;;;;;;15.06;57.47;101066.78;5012375;28;20044;-65
2022/07/26 03:18:22;;;;;;;11.55;1.05;;;;;;;14.91;58.14;101063.22;5013905;28;20048;-65
2022/07/26 03:20:48;;;;;;;10.43;1.73;;;;;;;14.93;58.00;101066.63;4999293;28;20484;-65
2022/07/26 03:23:14;;;;;;;5.25;1.33;;;;;;;14.98;58.13;101069.00;4994112;28;20049;-67
2022/07/26 03:25:40;;;;;;;5.22;1.90;;;;;;;14.69;58.92;101076.69;5009453;28;20166;-65
2022/07/26 03:28:05;;;;;;;6.97;1.30;;;;;;;14.77;58.80;101081.56;5014062;28;20060;-66
2022/07/26 03:30:31;;;;;;;5.00;0.88;;;;;;;14.81;58.69;101087.47;5015920;28;20031;-65
2022/07/26 03:32:56;;;;;;;5.47;1.27;;;;;;;14.58;59.32;101084.31;5007748;28;20073;-66
2022/07/26 03:35:21;;;;;;;7.07;0.55;;;;;;;14.58;59.25;101086.94;5015295;28;20045;-66
2022/07/26 03:37:47;;;;;;;6.05;0.55;;;;;;;14.85;58.34;101099.53;5012862;28;20117;-65
2022/07/26 03:40:14;;;;;;;7.28;1.50;;;;;;;;;;4984649;28;20556;-64
2022/07/26 03:42:39;;;;;;;2.97;0.77;;;;;;;14.80;57.67;101098.97;4997255;28;20906;-74
2022/07/26 03:45:05;;;;;;;7.78;0.63;;;;;;;14.84;57.56;101092.59;5013547;28;20033;-66
2022/07/26 03:47:31;;;;;;;7.50;0.70;;;;;;;14.87;57.10;101097.69;4978781;28;20425;-64
2022/07/26 03:49:56;;;;;;;3.15;0.40;;;;;;;14.64;57.04;101098.94;5011801;28;20045;-64
2022/07/26 03:52:21;;;;;;;4.63;0.28;;;;;;;14.55;56.93;101097.66;5011721;28;20037;-65
2022/07/26 03:54:47;;;;;;;1.17;0.10;;;;;;;14.59;56.50;101107.06;5013207;28;20034;-65
2022/07/26 03:57:12;;;;;;;3.63;0.35;;;;;;;14.37;56.84;101104.69;5011117;28;20057;-65
2022/07/26 03:59:38;;;;;;;6.93;0.57;;;;;;;14.70;55.94;101104.72;4995497;28;20107;-65
2022/07/26 04:02:03;;;;;;;2.58;0.10;;;;;;;14.84;55.81;101118.91;5012016;28;20069;-65
2022/07/26 04:04:29;;;;;;;3.45;0.30;;;;;;;14.81;55.78;101114.63;5010897;28;20042;-65
2022/07/26 04:06:55;;;;;;;2.88;0.20;;;;;;;14.86;55.33;101114.41;4997252;28;20049;-64
2022/07/26 04:09:21;;;;;;;3.65;0.30;;;;;;;14.87;55.42;101109.06;5002392;28;20040;-64
2022/07/26 04:11:47;;;;;;;4.10;0.30;;;;;;;14.84;55.64;101118.91;5011363;28;20037;-64
2022/07/26 04:14:13;;;;;;;1.65;0.25;;;;;;;14.59;56.21;101120.22;5012839;28;20037;-66
2022/07/26 04:16:39;;;;;;;3.33;0.20;;;;;;;14.62;55.91;101120.06;5015595;28;20103;-64
2022/07/26 04:19:04;;;;;;;2.47;0.20;;;;;;;14.76;55.80;101128.03;4996766;28;20033;-64
2022/07/26 04:21:30;;;;;;;3.75;0.10;;;;;;;14.64;55.79;101133.97;5019086;28;20575;-64
2022/07/26 04:23:55;;;;;;;3.75;0.15;;;;;;;14.43;56.07;101132.47;4998233;28;20049;-64
2022/07/26 04:26:21;;;;;;;3.88;0.20;;;;;;;13.94;57.32;101141.91;5019739;28;20025;-64
2022/07/26 04:28:47;;;;;;;4.53;0.17;;;;;;;14.10;57.15;101154.28;4997158;28;20152;-64
2022/07/26 04:31:12;;;;;;;2.25;0.10;;;;;;;14.23;56.51;101144.84;5015310;28;20044;-64
2022/07/26 04:33:38;;;;;;;3.08;0.38;;;;;;;14.23;56.67;101152.75;4998119;28;20045;-64
2022/07/26 04:36:04;;;;;;;4.15;0.20;;;;;;;14.38;56.33;101158.13;5014858;28;20029;-64
2022/07/26 04:38:29;;;;;;;2.03;0.10;;;;;;;13.85;57.31;101163.41;5019477;28;20492;-64
2022/07/26 04:40:56;;;;;;;0.70;0.30;;;;;;;14.39;55.67;101151.94;5013556;28;20037;-65
2022/07/26 04:43:22;;;;;;;5.45;0.20;;;;;;;14.41;55.65;101171.13;5018391;28;20041;-64
2022/07/26 04:45:48;;;;;;;3.67;0.17;;;;;;;14.33;55.97;101169.72;5015397;28;20018;-68
2022/07/26 04:48:14;;;;;;;3.08;0.35;;;;;;;14.49;55.56;101171.59;5015977;28;20346;-67
2022/07/26 04:50:40;;;;;;;2.30;0.17;;;;;;;14.58;55.24;101171.13;5017525;28;20040;-69
2022/07/26 04:53:06;;;;;;;3.67;0.30;;;;;;;14.81;54.62;101174.31;5004651;28;20044;-69
2022/07/26 04:55:31;;;;;;;2.03;0.15;;;;;;;14.85;54.58;101178.50;5016744;28;20029;-69
2022/07/26 04:57:57;;;;;;;3.58;0.22;;;;;;;14.92;54.56;101183.34;5014286;28;20563;-68
2022/07/26 05:00:23;;;;;;;4.00;0.10;;;;;;;14.93;53.73;101178.94;5000075;28;20407;-71
2022/07/26 05:02:54;;;;;;;3.92;0.10;;;;;;;15.15;53.75;101191.78;4997781;28;20476;-68
2022/07/26 05:05:21;;;;;;;1.58;0.03;;;;;;;15.12;53.86;101198.06;5015773;28;20051;-68
2022/07/26 05:07:52;;;;;;;1.10;0.13;;;;;;;14.72;53.94;101192.31;5013921;28;20204;-69
2022/07/26 05:10:19;;;;;;;7.55;0.25;;;;;;;14.91;53.07;101192.16;4997843;28;20198;-71
2022/07/26 05:12:45;;;;;;;3.47;0.10;;;;;;;14.97;53.03;101201.53;5001096;28;20076;-74
2022/07/26 05:15:12;;;;;;;1.38;0.43;;;;;;;15.06;52.39;101203.66;4985237;28;20033;-68
2022/07/26 05:17:38;;;;;;;3.08;0.50;;;;;;;15.06;51.80;101206.31;5016290;28;20052;-66
2022/07/26 05:20:06;;;;;;;7.25;0.30;;;;;;;14.88;52.27;101225.69;5016953;28;20041;-70
2022/07/26 05:22:34;;;;;;;4.32;0.70;;;;;;;14.42;52.97;101217.56;5014708;28;20064;-73
2022/07/26 05:24:59;;;;;;;2.55;0.15;;;;;;;14.33;52.99;101222.31;5015548;28;20247;-73
2022/07/26 05:27:24;;;;;;;6.70;0.60;;;;;;;14.42;52.80;101228.09;5017633;28;20650;-72
2022/07/26 05:29:50;;;;;;;3.63;0.30;;;;;;;14.36;53.90;101227.41;5001850;28;20816;-72
2022/07/26 05:32:15;;;;;;;1.75;0.20;;;;;;;13.90;55.17;101242.84;5014003;28;20541;-74
2022/07/26 05:34:41;;;;;;;5.25;0.10;;;;;;;14.15;54.75;101231.97;5012311;28;20044;-71
2022/07/26 05:37:06;;;;;;;4.53;0.40;;;;;;;14.11;54.56;101238.31;5014283;28;20093;-67
2022/07/26 05:39:32;;;;;;;4.32;0.25;;;;;;;14.28;54.05;101240.09;4999385;28;20041;-71
2022/07/26 05:41:57;;;;;;;9.75;0.57;;;;;;;14.33;53.69;101247.75;4971917;28;20042;-69
2022/07/26 05:44:23;;;;;;;2.60;0.30;;;;;;;14.26;53.54;101249.00;5017340;28;20037;-69
2022/07/26 05:46:49;;;;;;;4.13;0.30;;;;;;;14.49;52.70;101258.41;4999574;28;20122;-70
2022/07/26 05:49:15;;;;;;;4.68;0.40;;;;;;;14.66;52.68;101263.66;4986632;28;20033;-72
2022/07/26 05:51:40;;;;;;;5.68;0.20;;;;;;;14.52;51.60;101261.72;5001958;28;20080;-71
2022/07/26 05:54:06;;;;;;;2.30;0.20;;;;;;;14.38;52.80;101271.19;5014135;28;20041;-70
2022/07/26 05:56:31;;;;;;;8.13;0.30;;;;;;;14.41;52.40;101258.78;5017793;28;20057;-71
2022/07/26 05:58:57;;;;;;;7.63;0.70;;;;;;;14.49;52.91;101271.53;5001183;28;20088;-70
2022/07/26 06:01:22;;;;;;;6.35;0.30;;;;;;;14.89;52.42;101265.09;5018494;28;20478;-70
2022/07/26 06:03:48;;;;;;;2.92;0.45;;;;;;;16.21;49.00;101272.88;4986459;28;20612;-69
2022/07/26 06:06:14;;;;;;;6.85;0.47;;;;;;;16.82;45.94;101266.66;5011898;28;20087;-69
2022/07/26 06:08:40;;;;;;;6.25;0.20;;;;;;;17.34;45.23;101273.19;5003240;28;20049;-70
2022/07/26 06:11:05;;;;;;;2.85;0.10;;;;;;;17.73;47.21;101281.34;4990791;28;20107;-69
2022/07/26 06:13:31;;;;;;;7.22;0.40;;;;;;;17.75;45.81;101280.31;5013305;28;20122;-69
2022/07/26 06:15:57;;;;;;;4.15;0.63;;;;;;;18.36;43.67;101277.25;5014414;28;20046;-71
2022/07/26 06:18:22;;;;;;;5.22;0.68;;;;;;;18.62;43.12;101280.81;5015180;28;20041;-69
2022/07/26 06:20:48;;;;;;;3.40;0.30;;;;;;;20.67;38.51;101278.47;5017054;28;20053;-70
2022/07/26 06:23:14;;;;;;;4.13;0.30;;;;;;;21.89;34.91;101275.06;4998170;28;20107;-69
2022/07/26 06:25:40;;;;;;;5.45;0.45;;;;;;;19.50;39.31;101286.19;5015274;28;20056;-70
2022/07/26 06:28:08;;;;;;;3.80;0.30;;;;;;;18.74;39.49;101285.25;4998464;28;20053;-69
2022/07/26 06:30:35;;;;;;;2.78;0.52;;;;;;;17.57;42.46;101292.06;5014611;28;20112;-69
2022/07/26 06:33:01;;;;;;;2.97;0.25;;;;;;;16.68;43.60;101293.00;4979795;28;20138;-69
2022/07/26 06:35:34;;;;;;;5.35;0.10;;;;;;;16.54;44.83;101303.53;5015294;28;20471;-69
2022/07/26 06:38:00;;;;;;;2.25;0.10;;;;;;;15.66;47.02;101302.31;4995788;28;20609;-70
2022/07/26 06:40:26;;;;;;;5.90;0.20;;;;;;;15.95;47.20;101309.47;5014909;28;20036;-70
2022/07/26 06:42:51;;;;;;;5.88;0.30;;;;;;;15.86;46.66;101312.59;5010483;28;20072;-70
2022/07/26 06:45:20;;;;;;;6.63;0.20;;;;;;;15.66;47.75;101323.38;5018904;28;20025;-70
2022/07/26 06:47:45;;;;;;;7.80;0.40;;;;;;;15.08;49.55;101322.91;5011594;28;20065;-70
2022/07/26 06:50:11;;;;;;;5.60;0.60;;;;;;;14.80;50.70;101335.78;5004905;28;20032;-69
2022/07/26 06:52:36;;;;;;;6.82;0.20;;;;;;;14.89;49.71;101337.94;5015549;28;20041;-70
2022/07/26 06:55:02;;;;;;;4.30;0.38;;;;;;;14.37;50.74;101343.97;5013032;28;20182;-70
2022/07/26 06:57:28;;;;;;;3.30;0.10;;;;;;;14.53;50.19;101354.63;4998363;28;20240;-69
2022/07/26 06:59:53;;;;;;;6.53;0.75;;;;;;;14.29;49.33;101365.38;5013345;28;20313;-69
2022/07/26 07:02:19;;;;;;;5.68;0.65;;;;;;;13.92;48.36;101356.63;4984239;28;20045;-69
2022/07/26 07:04:45;;;;;;;1.48;0.30;;;;;;;14.19;47.51;101365.88;5012281;28;20481;-68
2022/07/26 07:07:10;;;;;;;3.78;0.10;;;;;;;14.14;47.61;101366.09;5015382;28;20125;-70
2022/07/26 07:09:36;;;;;;;3.47;0.30;;;;;;;14.76;46.29;101370.13;5000034;28;20552;-69
2022/07/26 07:12:03;;;;;;;5.15;0.10;;;;;;;14.84;45.61;101356.59;4999148;28;20616;-69
2022/07/26 07:14:28;;;;;;;4.65;0.15;;;;;;;15.30;45.52;101369.19;5013818;23;20029;-76
2022/07/26 07:16:55;;;;;;;3.08;0.40;;;;;;;15.32;44.60;101370.81;5022691;28;20049;-75
2022/07/26 07:19:21;;;;;;;7.28;0.57;;;;;;;14.44;47.36;101390.13;5006395;28;20639;-76
2022/07/26 07:21:47;;;;;;;5.60;0.20;;;;;;;14.20;49.10;101386.84;4998770;28;20036;-76
2022/07/26 07:24:12;;;;;;;2.13;0.10;;;;;;;14.52;48.31;101381.84;5010811;28;20031;-75
2022/07/26 07:26:38;;;;;;;4.43;0.10;;;;;;;14.64;47.70;101385.69;5011094;28;20893;-75
2022/07/26 07:29:03;;;;;;;2.67;0.10;;;;;;;15.06;46.56;101385.31;5017754;28;20045;-75
2022/07/26 07:31:29;;;;;;;2.13;0.28;;;;;;;15.91;45.33;101387.00;5014264;28;20028;-76
2022/07/26 07:33:54;;;;;;;4.13;0.22;;;;;;;16.29;43.82;101389.34;5009049;28;20100;-77
2022/07/26 07:36:20;;;;;;;4.13;0.20;;;;;;;16.65;42.84;101393.47;5016229;28;20087;-77
2022/07/26 07:38:46;;;;;;;3.60;0.50;;;;;;;16.46;43.03;101392.81;5008924;28;20045;-76
2022/07/26 07:41:12;;;;;;;7.53;0.40;;;;;;;16.83;42.54;101395.06;5022951;28;20029;-78
2022/07/26 07:43:38;;;;;;;4.68;0.20;;;;;;;16.57;42.67;101390.41;4991188;28;20056;-80
2022/07/26 07:46:03;;;;;;;4.65;0.38;;;;;;;16.91;41.97;101388.47;5000152;28;20060;-79
2022/07/26 07:48:29;;;;;;;3.63;0.30;;;;;;;18.03;39.87;101390.47;5015630;28;20268;-79
2022/07/26 07:50:55;;;;;;;4.68;0.60;;;;;;;17.50;39.86;101399.94;4996160;28;20224;-78
2022/07/26 07:53:20;;;;;;;3.22;0.40;;;;;;;16.98;40.54;101408.31;4987611;28;20048;-78
2022/07/26 07:55:46;;;;;;;2.58;0.85;;;;;;;16.87;41.27;101402.78;5008222;28;20467;-79
2022/07/26 07:58:12;;;;;;;6.43;0.40;;;;;;;15.90;42.16;101401.13;4998652;28;20343;-78
2022/07/26 08:00:38;;;;;;;7.00;0.55;;;;;;;16.15;40.25;101407.72;5023000;28;20132;-80
2022/07/26 08:03:03;;;;;;;3.75;0.43;;;;;;;16.39;39.81;101419.53;4990120;28;20051;-77
2022/07/26 08:05:29;;;;;;;1.02;0.00;;;;;;;16.73;39.58;101412.38;5007432;28;20515;-79
2022/07/26 08:07:54;;;;;;;6.50;0.32;;;;;;;16.86;38.19;101424.88;4996999;28;20203;-79
2022/07/26 08:10:20;;;;;;;6.72;0.10;;;;;;;17.50;37.48;101429.00;5015301;28;20076;-76
2022/07/26 08:12:45;;;;;;;2.05;0.10;;;;;;;17.58;36.61;101432.03;5010210;28;20065;-78
2022/07/26 08:15:11;;;;;;;1.27;0.40;;;;;;;17.66;36.45;101431.56;5011238;28;20017;-76
2022/07/26 08:17:37;;;;;;;3.08;0.10;;;;;;;17.32;37.41;101438.03;5015313;28;20038;-76
2022/07/26 08:20:03;;;;;;;10.07;0.30;;;;;;;16.49;38.61;101440.13;5000400;28;20389;-76
2022/07/26 08:22:28;;;;;;;2.80;0.22;;;;;;;16.67;38.67;101436.47;5012420;28;20033;-77
2022/07/26 08:24:54;;;;;;;1.77;0.10;;;;;;;17.29;37.25;101440.81;5009596;28;20040;-77
2022/07/26 08:27:20;;;;;;;3.17;0.10;;;;;;;18.47;36.38;101436.19;5010619;28;20038;-77
2022/07/26 08:29:45;;;;;;;3.05;0.17;;;;;;;17.60;36.58;101439.84;5007085;28;20050;-77
2022/07/26 08:32:11;;;;;;;0.82;0.43;;;;;;;17.57;36.94;101443.53;5021069;28;20050;-76
2022/07/26 08:34:36;;;;;;;6.40;0.30;;;;;;;17.31;37.71;101445.06;5023084;28;20149;-77
2022/07/26 08:37:02;;;;;;;11.88;0.30;;;;;;;17.11;38.70;101461.25;5006876;28;20045;-76
2022/07/26 08:39:28;;;;;;;6.00;0.30;;;;;;;17.35;37.79;101451.03;5013936;28;20041;-76
2022/07/26 08:41:53;;;;;;;4.28;0.20;;;;;;;17.90;36.50;101447.72;5003243;28;20052;-77
2022/07/26 08:44:19;;;;;;;5.28;0.73;;;;;;;18.20;36.07;101450.25;5013583;28;20044;-78
2022/07/26 08:46:44;;;;;;;4.35;0.28;;;;;;;18.40;35.66;101458.72;5012846;28;20038;-77
2022/07/26 08:49:11;;;;;;;0.85;0.10;;;;;;;19.18;34.20;101452.75;5004689;28;20099;-77
2022/07/26 08:51:42;;;;;;;2.88;0.10;;;;;;;19.70;32.29;101452.72;5010634;28;20813;-77
2022/07/26 08:54:11;;;;;;;4.30;0.40;;;;;;;21.97;28.35;101450.91;5007585;28;20033;-77
2022/07/26 08:56:47;;;;;;;5.22;0.43;;;;;;;21.88;27.91;101453.47;5005415;28;20040;-77
2022/07/26 08:59:16;;;;;;;3.30;0.25;;;;;;;22.88;27.52;101461.41;5009160;28;20622;-77
2022/07/26 09:01:53;;;;;;;2.28;0.10;;;;;;;22.29;27.53;101470.63;5014529;28;20053;-77
2022/07/26 09:04:21;;;;;;;2.08;0.63;;;;;;;22.44;27.85;101465.88;5011061;28;20067;-76
2022/07/26 09:07:14;;;;;;;3.72;0.30;;;;;;;22.10;29.33;101474.78;5012134;28;20119;-79
2022/07/26 09:09:58;;;;;;;8.98;0.40;;;;;;;24.08;27.13;101480.50;4996659;28;20041;-76
2022/07/26 09:12:25;;;;;;;1.95;0.17;;;;;;;23.59;27.95;101477.63;5010488;28;20038;-76
2022/07/26 09:14:50;;;;;;;5.18;0.60;;;;;;;22.50;28.88;101481.38;5010605;28;20026;-77
2022/07/26 09:17:18;;;;;;;5.53;0.47;;;;;;;22.37;29.81;101481.50;5023557;28;20049;-77
2022/07/26 09:19:44;;;;;;;5.18;0.68;;;;;;;21.28;30.65;101488.16;5010242;28;20562;-77
2022/07/26 09:22:15;;;;;;;7.43;0.45;;;;;;;20.86;31.82;101490.44;5005772;28;20092;-76
2022/07/26 09:24:44;;;;;;;6.85;0.90;;;;;;;19.71;32.98;101501.28;5012150;28;20030;-79
2022/07/26 09:27:12;;;;;;;5.70;0.40;;;;;;;18.45;35.25;101513.06;4994148;28;20492;-77
2022/07/26 09:29:53;;;;;;;9.63;1.15;;;;;;;17.90;36.13;101519.09;5013894;28;20120;-78
2022/07/26 09:32:21;;;;;;;9.40;0.98;;;;;;;18.24;36.70;101525.00;5015712;28;20124;-78
2022/07/26 09:34:51;;;;;;;6.80;0.63;;;;;;;18.86;36.13;101520.13;5022658;28;20111;-78
2022/07/26 09:37:17;;;;;;;7.00;1.00;;;;;;;18.48;35.40;101525.25;5011496;28;20390;-78
2022/07/26 09:40:01;;;;;;;7.97;0.60;;;;;;;18.09;35.67;101537.34;5000691;28;20440;-78
2022/07/26 09:42:27;;;;;;;9.02;0.70;;;;;;;18.21;35.18;101535.78;4993511;28;20308;-78
2022/07/26 09:44:56;;;;;;;5.38;0.77;;;;;;;17.90;34.82;101542.91;5008598;28;20365;-76
2022/07/26 09:47:34;;;;;;;3.60;0.30;;;;;;;18.41;34.47;101545.97;5008025;28;20156;-77
2022/07/26 09:50:14;;;;;;;4.28;0.50;;;;;;;18.09;34.14;101542.63;5004331;28;20117;-77
2022/07/26 09:52:40;;;;;;;11.43;0.90;;;;;;;16.94;35.54;101546.75;5009367;28;20761;-78
2022/07/26 09:55:07;;;;;;;8.35;0.88;;;;;;;17.10;36.23;101546.72;5010200;28;20030;-78
2022/07/26 09:57:34;;;;;;;5.68;0.52;;;;;;;17.90;35.06;101547.34;5008094;28;20358;-77
2022/07/26 10:00:04;;;;;;;6.75;0.88;;;;;;;17.20;35.06;101548.75;5008176;28;20941;-77
2022/07/26 10:02:31;;;;;;;10.07;0.47;;;;;;;17.36;34.37;101550.50;5010254;28;20050;-77
2022/07/26 10:04:57;;;;;;;6.28;1.05;;;;;;;18.04;33.78;101548.19;5008712;28;20435;-76
2022/07/26 10:07:22;;;;;;;6.03;1.08;;;;;;;18.88;32.84;101528.88;5009512;28;21018;-77
2022/07/26 10:09:56;;;;;;;11.23;0.60;;;;;;;19.03;32.87;101552.63;5011114;28;20037;-76
2022/07/26 10:12:25;;;;;;;7.47;1.15;;;;;;;19.57;31.04;101565.00;5006110;28;20081;-77
2022/07/26 10:14:51;;;;;;;3.47;0.30;;;;;;;19.26;29.98;101561.75;5009513;28;20034;-79
2022/07/26 10:17:28;;;;;;;2.28;0.20;;;;;;;19.76;29.95;101569.94;4992480;28;20041;-75
2022/07/26 10:19:55;;;;;;;2.33;0.65;;;;;;;19.49;29.97;101584.06;4995132;28;20462;-75
2022/07/26 10:22:33;;;;;;;7.13;0.88;;;;;;;19.83;29.86;101581.81;5010104;28;20049;-76
2022/07/26 10:25:17;;;;;;;7.60;0.35;;;;;;;19.76;31.33;101593.78;5010189;28;20034;-76
2022/07/26 10:27:49;;;;;;;9.88;0.82;;;;;;;19.31;30.87;101591.44;5006135;28;20049;-74
2022/07/26 10:30:15;;;;;;;8.80;0.75;;;;;;;19.57;30.41;101597.69;5008005;28;20112;-76
2022/07/26 10:33:02;;;;;;;5.90;0.30;;;;;;;19.07;31.43;101600.03;5008448;28;20128;-75
2022/07/26 10:35:40;;;;;;;4.32;0.20;;;;;;;19.46;29.46;101600.19;4998465;28;20042;-76
2022/07/26 10:38:28;;;;;;;6.55;0.40;;;;;;;19.50;30.34;101602.53;5009004;28;20056;-76
2022/07/26 10:40:59;;;;;;;4.65;0.30;;;;;;;19.91;30.17;101606.03;5010328;28;20088;-77
2022/07/26 10:43:26;;;;;;;4.70;0.50;;;;;;;20.24;28.14;101602.88;5006963;28;20045;-77
2022/07/26 10:46:16;;;;;;;5.13;0.50;;;;;;;19.80;28.70;101621.81;5008372;28;20038;-77
2022/07/26 10:49:06;;;;;;;3.00;0.20;;;;;;;19.06;29.70;101618.69;5008797;28;20041;-76
2022/07/26 10:51:37;;;;;;;2.38;0.38;;;;;;;18.81;30.83;101616.69;4986326;28;20041;-75
2022/07/26 10:54:07;;;;;;;5.38;0.82;;;;;;;19.01;29.89;101612.81;5008940;28;20033;-76
2022/07/26 10:56:32;;;;;;;3.65;0.22;;;;;;;18.67;30.06;101620.22;4987823;28;20037;-78
2022/07/26 10:58:58;;;;;;;2.20;0.20;;;;;;;19.15;29.36;101618.09;4999197;28;20033;-77
2022/07/26 11:01:39;;;;;;;3.25;0.43;;;;;;;19.64;29.89;101614.88;5003035;28;20087;-75
2022/07/26 11:04:06;;;;;;;6.13;0.50;;;;;;;18.74;29.93;101626.00;4996501;28;20049;-76
2022/07/26 11:06:32;;;;;;;1.85;0.10;;;;;;;19.46;29.75;101616.94;5002954;28;20042;-77
2022/07/26 11:08:57;;;;;;;5.70;0.50;;;;;;;19.25;28.46;101618.34;4997449;28;20048;-79
2022/07/26 11:11:28;;;;;;;3.08;0.20;;;;;;;19.10;29.05;101620.19;4990886;28;20078;-78
2022/07/26 11:14:13;;;;;;;4.28;0.30;;;;;;;19.00;29.32;101624.38;4983270;28;20069;-76
2022/07/26 11:16:43;;;;;;;4.93;0.20;;;;;;;19.13;29.87;101614.69;5004584;28;20033;-77
2022/07/26 11:19:20;;;;;;;3.30;0.63;;;;;;;20.34;27.70;101608.38;4998956;28;20097;-78
2022/07/26 11:21:54;;;;;;;7.55;0.38;;;;;;;22.01;27.46;101632.50;4995443;28;20512;-75
2022/07/26 11:24:20;;;;;;;4.80;0.20;;;;;;;22.49;25.52;101628.81;4983626;28;20024;-78